Malahat, Canada
Current Conditions -  °F | °C
As of 7:00 AM on Saturday 25 Oct 2014 (Local Time) from CYYJ Reporting Station
Light Rain Light Rain  
Wind Chill: 45°   Ceiling: 9100
Heat Index: 48°   Visibility: 30mi
Dew Point: 46°   Wind: 8mph
Humidity: 93%   Direction: 330°NNW
Pressure: 29.5"   Gusts: NA
Location:  48.56°N, 123.56°W
Report Text: CYYJ 251400Z 33007KT 30SM -RA FEW010 FEW016 SCT070 BKN091 09/08 A2950 RMK SF1SC1AC4AC3 SF TR SC TR -RA INTMT SLP990
Loading
Personal Weather Stations






























Interactive Weather Map
Tropical Storm Tracking
New forecast layout! Learn more

10-Day Weather Forecast

Advertisements
Track Severe Weather on mobile